sensor_id;sensor_type;location;lat;lon;timestamp;temperature;humidity
18794;DHT22;29610;49.022;12.114;2023-02-24T00:02:00;6.90;99.90
18794;DHT22;29610;49.022;12.114;2023-02-24T00:04:34;6.90;99.90
18794;DHT22;29610;49.022;12.114;2023-02-24T00:07:06;6.80;99.90
18794;DHT22;29610;49.022;12.114;2023-02-24T00:09:37;6.90;99.90
18794;DHT22;29610;49.022;12.114;2023-02-24T00:12:10;6.80;99.90
18794;DHT22;29610;49.022;12.114;2023-02-24T00:14:41;6.80;99.90
18794;DHT22;29610;49.022;12.114;2023-02-24T00:17:11;7.10;99.90
18794;DHT22;29610;49.022;12.114;2023-02-24T00:19:41;6.80;99.90
18794;DHT22;29610;49.022;12.114;2023-02-24T00:22:10;6.70;99.90
18794;DHT22;29610;49.022;12.114;2023-02-24T00:24:39;6.70;99.90
18794;DHT22;29610;49.022;12.114;2023-02-24T00:27:09;6.70;99.90
18794;DHT22;29610;49.022;12.114;2023-02-24T00:29:39;6.70;99.90
18794;DHT22;29610;49.022;12.114;2023-02-24T00:32:08;6.70;99.90
18794;DHT22;29610;49.022;12.114;2023-02-24T00:34:39;6.70;99.90
18794;DHT22;29610;49.022;12.114;2023-02-24T00:37:09;6.70;99.90
18794;DHT22;29610;49.022;12.114;2023-02-24T00:39:38;6.70;99.90
18794;DHT22;29610;49.022;12.114;2023-02-24T00:42:10;6.70;99.90
18794;DHT22;29610;49.022;12.114;2023-02-24T00:44:44;6.70;99.90
18794;DHT22;29610;49.022;12.114;2023-02-24T00:47:15;6.10;99.90
18794;DHT22;29610;49.022;12.114;2023-02-24T00:49:44;6.70;99.90
18794;DHT22;29610;49.022;12.114;2023-02-24T00:52:15;6.80;99.90
18794;DHT22;29610;49.022;12.114;2023-02-24T00:54:46;6.80;99.90
18794;DHT22;29610;49.022;12.114;2023-02-24T00:57:18;6.90;99.90
18794;DHT22;29610;49.022;12.114;2023-02-24T00:59:49;6.90;99.90
18794;DHT22;29610;49.022;12.114;2023-02-24T01:02:18;7.00;99.90
18794;DHT22;29610;49.022;12.114;2023-02-24T01:04:47;7.00;99.90
18794;DHT22;29610;49.022;12.114;2023-02-24T01:07:17;7.00;99.90
18794;DHT22;29610;49.022;12.114;2023-02-24T01:09:49;7.10;99.90
18794;DHT22;29610;49.022;12.114;2023-02-24T01:12:19;7.00;99.90
18794;DHT22;29610;49.022;12.114;2023-02-24T01:15:06;7.00;99.90
18794;DHT22;29610;49.022;12.114;2023-02-24T01:17:40;6.90;99.90
18794;DHT22;29610;49.022;12.114;2023-02-24T01:20:10;6.90;99.90
18794;DHT22;29610;49.022;12.114;2023-02-24T01:22:47;6.90;99.90
18794;DHT22;29610;49.022;12.114;2023-02-24T01:25:19;6.90;99.90
18794;DHT22;29610;49.022;12.114;2023-02-24T01:27:49;6.90;99.90
18794;DHT22;29610;49.022;12.114;2023-02-24T01:30:19;7.00;99.90
18794;DHT22;29610;49.022;12.114;2023-02-24T01:32:49;7.00;99.90
18794;DHT22;29610;49.022;12.114;2023-02-24T01:35:18;7.30;99.90
18794;DHT22;29610;49.022;12.114;2023-02-24T01:37:47;6.90;99.90
18794;DHT22;29610;49.022;12.114;2023-02-24T01:40:16;6.90;99.90
18794;DHT22;29610;49.022;12.114;2023-02-24T01:42:49;6.80;99.90
18794;DHT22;29610;49.022;12.114;2023-02-24T01:45:23;6.90;99.90
18794;DHT22;29610;49.022;12.114;2023-02-24T01:47:58;7.60;99.90
18794;DHT22;29610;49.022;12.114;2023-02-24T01:50:33;6.90;99.90
18794;DHT22;29610;49.022;12.114;2023-02-24T01:53:06;6.90;99.90
18794;DHT22;29610;49.022;12.114;2023-02-24T01:55:41;7.20;99.90
18794;DHT22;29610;49.022;12.114;2023-02-24T01:58:20;7.00;99.90
18794;DHT22;29610;49.022;12.114;2023-02-24T02:00:54;7.00;99.90
18794;DHT22;29610;49.022;12.114;2023-02-24T02:03:26;7.00;99.90
18794;DHT22;29610;49.022;12.114;2023-02-24T02:05:59;7.00;99.90
18794;DHT22;29610;49.022;12.114;2023-02-24T02:08:30;7.00;99.90
18794;DHT22;29610;49.022;12.114;2023-02-24T02:11:05;6.90;99.90
18794;DHT22;29610;49.022;12.114;2023-02-24T02:13:39;6.90;99.90
18794;DHT22;29610;49.022;12.114;2023-02-24T02:16:30;6.90;99.90
18794;DHT22;29610;49.022;12.114;2023-02-24T02:26:26;6.80;99.90
18794;DHT22;29610;49.022;12.114;2023-02-24T02:29:34;6.80;99.90
18794;DHT22;29610;49.022;12.114;2023-02-24T02:32:55;6.80;99.90
18794;DHT22;29610;49.022;12.114;2023-02-24T02:35:48;6.80;99.90
18794;DHT22;29610;49.022;12.114;2023-02-24T02:38:30;6.90;99.90
18794;DHT22;29610;49.022;12.114;2023-02-24T02:41:09;6.90;99.90
18794;DHT22;29610;49.022;12.114;2023-02-24T02:43:52;6.90;99.90
18794;DHT22;29610;49.022;12.114;2023-02-24T02:46:33;6.90;99.90
18794;DHT22;29610;49.022;12.114;2023-02-24T02:49:12;6.90;99.90
18794;DHT22;29610;49.022;12.114;2023-02-24T02:51:49;6.80;99.90
18794;DHT22;29610;49.022;12.114;2023-02-24T02:54:25;6.80;99.90
18794;DHT22;29610;49.022;12.114;2023-02-24T02:57:02;6.80;99.90
18794;DHT22;29610;49.022;12.114;2023-02-24T02:59:40;6.70;99.90
18794;DHT22;29610;49.022;12.114;2023-02-24T03:02:18;7.10;99.90
18794;DHT22;29610;49.022;12.114;2023-02-24T03:04:57;6.80;99.90
18794;DHT22;29610;49.022;12.114;2023-02-24T03:07:33;6.70;99.90
18794;DHT22;29610;49.022;12.114;2023-02-24T03:10:11;6.70;99.90
18794;DHT22;29610;49.022;12.114;2023-02-24T03:12:50;6.80;99.90
18794;DHT22;29610;49.022;12.114;2023-02-24T03:15:24;6.90;99.90
18794;DHT22;29610;49.022;12.114;2023-02-24T03:18:00;6.90;99.90
18794;DHT22;29610;49.022;12.114;2023-02-24T03:20:40;6.90;99.90
18794;DHT22;29610;49.022;12.114;2023-02-24T03:23:17;6.90;99.90
18794;DHT22;29610;49.022;12.114;2023-02-24T03:25:55;6.90;99.90
18794;DHT22;29610;49.022;12.114;2023-02-24T03:28:32;6.90;99.90
18794;DHT22;29610;49.022;12.114;2023-02-24T03:31:09;6.90;99.90
18794;DHT22;29610;49.022;12.114;2023-02-24T03:33:50;6.90;99.90
18794;DHT22;29610;49.022;12.114;2023-02-24T03:36:30;6.90;99.90
18794;DHT22;29610;49.022;12.114;2023-02-24T03:39:02;6.80;99.90
18794;DHT22;29610;49.022;12.114;2023-02-24T03:41:39;6.80;99.90
18794;DHT22;29610;49.022;12.114;2023-02-24T03:44:13;6.80;99.90
18794;DHT22;29610;49.022;12.114;2023-02-24T03:46:41;6.80;99.90
18794;DHT22;29610;49.022;12.114;2023-02-24T03:49:14;6.90;99.90
18794;DHT22;29610;49.022;12.114;2023-02-24T03:51:53;7.20;99.90
18794;DHT22;29610;49.022;12.114;2023-02-24T03:54:57;6.90;99.90
18794;DHT22;29610;49.022;12.114;2023-02-24T03:57:46;6.90;99.90
18794;DHT22;29610;49.022;12.114;2023-02-24T04:00:36;6.90;99.90
18794;DHT22;29610;49.022;12.114;2023-02-24T04:03:20;7.20;99.90
18794;DHT22;29610;49.022;12.114;2023-02-24T04:06:07;6.90;99.90
18794;DHT22;29610;49.022;12.114;2023-02-24T04:08:46;6.80;99.90
18794;DHT22;29610;49.022;12.114;2023-02-24T04:11:25;6.90;99.90
18794;DHT22;29610;49.022;12.114;2023-02-24T04:14:01;6.90;99.90
18794;DHT22;29610;49.022;12.114;2023-02-24T04:16:38;6.90;99.90
18794;DHT22;29610;49.022;12.114;2023-02-24T04:19:14;6.90;99.90
18794;DHT22;29610;49.022;12.114;2023-02-24T04:21:49;7.00;99.90
18794;DHT22;29610;49.022;12.114;2023-02-24T04:24:27;7.00;99.90
18794;DHT22;29610;49.022;12.114;2023-02-24T04:27:02;7.00;99.90
18794;DHT22;29610;49.022;12.114;2023-02-24T04:29:40;6.90;99.90
18794;DHT22;29610;49.022;12.114;2023-02-24T04:32:18;7.00;99.90
18794;DHT22;29610;49.022;12.114;2023-02-24T04:34:51;7.00;99.90
18794;DHT22;29610;49.022;12.114;2023-02-24T04:37:20;6.90;99.90
18794;DHT22;29610;49.022;12.114;2023-02-24T04:39:49;6.90;99.90
18794;DHT22;29610;49.022;12.114;2023-02-24T04:42:27;6.90;99.90
18794;DHT22;29610;49.022;12.114;2023-02-24T04:44:56;6.90;99.90
18794;DHT22;29610;49.022;12.114;2023-02-24T04:47:24;6.80;99.90
18794;DHT22;29610;49.022;12.114;2023-02-24T04:49:54;6.70;99.90
18794;DHT22;29610;49.022;12.114;2023-02-24T04:52:23;6.70;99.90
18794;DHT22;29610;49.022;12.114;2023-02-24T04:54:51;6.60;99.90
18794;DHT22;29610;49.022;12.114;2023-02-24T04:57:20;6.70;99.90
18794;DHT22;29610;49.022;12.114;2023-02-24T04:59:50;6.60;99.90
18794;DHT22;29610;49.022;12.114;2023-02-24T05:02:19;6.70;99.90
18794;DHT22;29610;49.022;12.114;2023-02-24T05:04:48;6.60;99.90
18794;DHT22;29610;49.022;12.114;2023-02-24T05:07:17;6.70;99.90
18794;DHT22;29610;49.022;12.114;2023-02-24T05:09:45;6.70;99.90
18794;DHT22;29610;49.022;12.114;2023-02-24T05:12:15;6.80;99.90
18794;DHT22;29610;49.022;12.114;2023-02-24T05:14:43;6.80;99.90
18794;DHT22;29610;49.022;12.114;2023-02-24T05:17:16;7.00;99.90
18794;DHT22;29610;49.022;12.114;2023-02-24T05:19:46;6.80;99.90
18794;DHT22;29610;49.022;12.114;2023-02-24T05:22:32;6.80;99.90
18794;DHT22;29610;49.022;12.114;2023-02-24T05:25:01;6.80;99.90
18794;DHT22;29610;49.022;12.114;2023-02-24T05:27:30;6.90;99.90
18794;DHT22;29610;49.022;12.114;2023-02-24T05:30:06;6.80;99.90
18794;DHT22;29610;49.022;12.114;2023-02-24T05:32:37;6.80;99.90
18794;DHT22;29610;49.022;12.114;2023-02-24T05:35:06;6.80;99.90
18794;DHT22;29610;49.022;12.114;2023-02-24T05:37:37;6.90;99.90
18794;DHT22;29610;49.022;12.114;2023-02-24T05:40:10;6.90;99.90
18794;DHT22;29610;49.022;12.114;2023-02-24T05:42:40;6.90;99.90
18794;DHT22;29610;49.022;12.114;2023-02-24T05:45:11;7.30;99.90
18794;DHT22;29610;49.022;12.114;2023-02-24T05:47:41;7.00;99.90
18794;DHT22;29610;49.022;12.114;2023-02-24T05:50:12;6.90;99.90
18794;DHT22;29610;49.022;12.114;2023-02-24T05:52:41;6.80;99.90
18794;DHT22;29610;49.022;12.114;2023-02-24T05:55:12;6.80;99.90
18794;DHT22;29610;49.022;12.114;2023-02-24T05:57:42;6.80;99.90
18794;DHT22;29610;49.022;12.114;2023-02-24T06:00:12;6.70;99.90
18794;DHT22;29610;49.022;12.114;2023-02-24T06:02:43;6.70;99.90
18794;DHT22;29610;49.022;12.114;2023-02-24T06:05:16;6.60;99.90
18794;DHT22;29610;49.022;12.114;2023-02-24T06:07:56;6.70;99.90
18794;DHT22;29610;49.022;12.114;2023-02-24T06:10:32;6.80;99.90
18794;DHT22;29610;49.022;12.114;2023-02-24T06:13:02;6.80;99.90
18794;DHT22;29610;49.022;12.114;2023-02-24T06:15:32;6.90;99.90
18794;DHT22;29610;49.022;12.114;2023-02-24T06:18:03;7.00;99.90
18794;DHT22;29610;49.022;12.114;2023-02-24T06:20:33;7.00;99.90
18794;DHT22;29610;49.022;12.114;2023-02-24T06:23:02;7.00;99.90
18794;DHT22;29610;49.022;12.114;2023-02-24T06:25:31;7.00;99.90
18794;DHT22;29610;49.022;12.114;2023-02-24T06:28:00;7.00;99.90
18794;DHT22;29610;49.022;12.114;2023-02-24T06:30:28;6.90;99.90
18794;DHT22;29610;49.022;12.114;2023-02-24T06:32:58;6.80;99.90
18794;DHT22;29610;49.022;12.114;2023-02-24T06:35:28;6.90;99.90
18794;DHT22;29610;49.022;12.114;2023-02-24T06:37:58;7.00;99.90
18794;DHT22;29610;49.022;12.114;2023-02-24T06:40:27;6.90;99.90
18794;DHT22;29610;49.022;12.114;2023-02-24T06:42:57;6.90;99.90
18794;DHT22;29610;49.022;12.114;2023-02-24T06:45:25;7.00;99.90
18794;DHT22;29610;49.022;12.114;2023-02-24T06:47:54;6.90;99.90
18794;DHT22;29610;49.022;12.114;2023-02-24T06:50:24;7.00;99.90
18794;DHT22;29610;49.022;12.114;2023-02-24T06:52:55;7.00;99.90
18794;DHT22;29610;49.022;12.114;2023-02-24T06:55:27;7.10;99.90
18794;DHT22;29610;49.022;12.114;2023-02-24T06:57:57;7.10;99.90
18794;DHT22;29610;49.022;12.114;2023-02-24T07:00:32;7.20;99.90
18794;DHT22;29610;49.022;12.114;2023-02-24T07:03:07;7.30;99.90
18794;DHT22;29610;49.022;12.114;2023-02-24T07:05:45;7.20;99.90
18794;DHT22;29610;49.022;12.114;2023-02-24T07:08:20;7.20;99.90
18794;DHT22;29610;49.022;12.114;2023-02-24T07:10:53;7.30;99.90
18794;DHT22;29610;49.022;12.114;2023-02-24T07:13:24;7.40;99.90
18794;DHT22;29610;49.022;12.114;2023-02-24T07:15:58;7.40;99.90
18794;DHT22;29610;49.022;12.114;2023-02-24T07:18:32;7.50;99.90
18794;DHT22;29610;49.022;12.114;2023-02-24T07:21:03;7.60;99.90
18794;DHT22;29610;49.022;12.114;2023-02-24T07:23:39;7.60;99.90
18794;DHT22;29610;49.022;12.114;2023-02-24T07:26:11;7.80;99.90
18794;DHT22;29610;49.022;12.114;2023-02-24T07:28:43;7.60;99.90
18794;DHT22;29610;49.022;12.114;2023-02-24T07:31:15;7.70;99.90
18794;DHT22;29610;49.022;12.114;2023-02-24T07:33:47;7.60;99.90
18794;DHT22;29610;49.022;12.114;2023-02-24T07:36:19;7.70;99.90
18794;DHT22;29610;49.022;12.114;2023-02-24T07:38:53;7.80;99.90
18794;DHT22;29610;49.022;12.114;2023-02-24T07:41:23;7.80;99.90
18794;DHT22;29610;49.022;12.114;2023-02-24T07:43:53;7.90;99.90
18794;DHT22;29610;49.022;12.114;2023-02-24T07:46:27;8.00;99.90
18794;DHT22;29610;49.022;12.114;2023-02-24T07:48:57;8.20;99.90
18794;DHT22;29610;49.022;12.114;2023-02-24T07:51:27;8.10;99.90
18794;DHT22;29610;49.022;12.114;2023-02-24T07:53:59;8.50;99.90
18794;DHT22;29610;49.022;12.114;2023-02-24T07:56:30;8.20;99.90
18794;DHT22;29610;49.022;12.114;2023-02-24T07:59:00;8.20;99.90
18794;DHT22;29610;49.022;12.114;2023-02-24T08:01:35;8.20;99.90
18794;DHT22;29610;49.022;12.114;2023-02-24T08:04:07;8.20;99.90
18794;DHT22;29610;49.022;12.114;2023-02-24T08:06:40;8.20;99.90
18794;DHT22;29610;49.022;12.114;2023-02-24T08:09:15;8.30;99.90
18794;DHT22;29610;49.022;12.114;2023-02-24T08:11:49;8.60;99.90
18794;DHT22;29610;49.022;12.114;2023-02-24T08:14:20;8.50;99.90
18794;DHT22;29610;49.022;12.114;2023-02-24T08:16:52;8.50;99.90
18794;DHT22;29610;49.022;12.114;2023-02-24T08:19:26;8.40;99.90
18794;DHT22;29610;49.022;12.114;2023-02-24T08:22:00;8.60;99.90
18794;DHT22;29610;49.022;12.114;2023-02-24T08:24:46;8.80;99.90
18794;DHT22;29610;49.022;12.114;2023-02-24T08:27:20;8.90;99.90
18794;DHT22;29610;49.022;12.114;2023-02-24T08:29:52;8.90;99.90
18794;DHT22;29610;49.022;12.114;2023-02-24T08:32:31;8.80;99.90
18794;DHT22;29610;49.022;12.114;2023-02-24T08:35:05;9.30;99.90
18794;DHT22;29610;49.022;12.114;2023-02-24T08:37:42;8.90;99.90
18794;DHT22;29610;49.022;12.114;2023-02-24T08:40:17;8.90;99.90
18794;DHT22;29610;49.022;12.114;2023-02-24T08:43:06;9.00;99.90
18794;DHT22;29610;49.022;12.114;2023-02-24T08:45:48;9.00;99.90
18794;DHT22;29610;49.022;12.114;2023-02-24T08:48:20;9.30;99.90
18794;DHT22;29610;49.022;12.114;2023-02-24T08:51:00;9.40;99.90
18794;DHT22;29610;49.022;12.114;2023-02-24T08:53:31;9.50;99.90
18794;DHT22;29610;49.022;12.114;2023-02-24T08:56:03;9.60;99.90
18794;DHT22;29610;49.022;12.114;2023-02-24T08:58:36;9.70;99.90
18794;DHT22;29610;49.022;12.114;2023-02-24T09:01:15;9.90;99.90
18794;DHT22;29610;49.022;12.114;2023-02-24T09:03:48;9.90;99.90
18794;DHT22;29610;49.022;12.114;2023-02-24T09:06:21;10.10;99.90
18794;DHT22;29610;49.022;12.114;2023-02-24T09:08:55;10.10;99.90
18794;DHT22;29610;49.022;12.114;2023-02-24T09:11:43;10.30;99.90
18794;DHT22;29610;49.022;12.114;2023-02-24T09:14:15;10.40;99.90
18794;DHT22;29610;49.022;12.114;2023-02-24T09:16:58;10.60;99.90
18794;DHT22;29610;49.022;12.114;2023-02-24T09:19:36;10.40;99.90
18794;DHT22;29610;49.022;12.114;2023-02-24T09:22:31;10.20;99.90
18794;DHT22;29610;49.022;12.114;2023-02-24T09:25:10;10.10;99.90
18794;DHT22;29610;49.022;12.114;2023-02-24T09:27:51;10.30;99.90
18794;DHT22;29610;49.022;12.114;2023-02-24T09:30:24;10.20;99.90
18794;DHT22;29610;49.022;12.114;2023-02-24T09:33:07;10.30;99.90
18794;DHT22;29610;49.022;12.114;2023-02-24T09:35:46;10.60;99.90
18794;DHT22;29610;49.022;12.114;2023-02-24T09:38:18;10.70;99.90
18794;DHT22;29610;49.022;12.114;2023-02-24T09:41:21;10.70;99.90
18794;DHT22;29610;49.022;12.114;2023-02-24T09:44:03;10.90;99.90
18794;DHT22;29610;49.022;12.114;2023-02-24T09:46:48;10.60;99.90
18794;DHT22;29610;49.022;12.114;2023-02-24T09:49:23;10.80;99.90
18794;DHT22;29610;49.022;12.114;2023-02-24T09:52:10;10.90;99.90
18794;DHT22;29610;49.022;12.114;2023-02-24T09:54:45;11.10;99.90
18794;DHT22;29610;49.022;12.114;2023-02-24T09:57:39;11.30;99.90
18794;DHT22;29610;49.022;12.114;2023-02-24T10:01:02;11.60;99.90
18794;DHT22;29610;49.022;12.114;2023-02-24T10:03:55;12.20;99.90
18794;DHT22;29610;49.022;12.114;2023-02-24T10:06:47;11.40;99.90
18794;DHT22;29610;49.022;12.114;2023-02-24T10:09:21;11.40;99.90
18794;DHT22;29610;49.022;12.114;2023-02-24T10:11:56;11.30;99.90
18794;DHT22;29610;49.022;12.114;2023-02-24T10:14:36;11.30;99.90
18794;DHT22;29610;49.022;12.114;2023-02-24T10:17:20;12.20;99.90
18794;DHT22;29610;49.022;12.114;2023-02-24T10:19:59;11.10;99.90
18794;DHT22;29610;49.022;12.114;2023-02-24T10:22:58;11.40;99.90
18794;DHT22;29610;49.022;12.114;2023-02-24T10:25:39;11.20;99.90
18794;DHT22;29610;49.022;12.114;2023-02-24T10:28:27;10.80;99.90
18794;DHT22;29610;49.022;12.114;2023-02-24T10:31:08;10.80;99.90
18794;DHT22;29610;49.022;12.114;2023-02-24T10:33:56;10.90;99.90
18794;DHT22;29610;49.022;12.114;2023-02-24T10:36:33;11.20;99.90
18794;DHT22;29610;49.022;12.114;2023-02-24T10:39:12;10.90;99.90
18794;DHT22;29610;49.022;12.114;2023-02-24T10:41:44;11.70;99.90
18794;DHT22;29610;49.022;12.114;2023-02-24T10:44:20;12.80;99.90
18794;DHT22;29610;49.022;12.114;2023-02-24T10:47:01;11.40;99.90
18794;DHT22;29610;49.022;12.114;2023-02-24T10:49:41;11.50;99.90
18794;DHT22;29610;49.022;12.114;2023-02-24T10:52:25;11.40;99.90
18794;DHT22;29610;49.022;12.114;2023-02-24T10:55:24;11.50;99.90
18794;DHT22;29610;49.022;12.114;2023-02-24T10:58:21;11.60;99.90
18794;DHT22;29610;49.022;12.114;2023-02-24T11:01:10;13.00;99.90
18794;DHT22;29610;49.022;12.114;2023-02-24T11:03:50;11.50;99.90
18794;DHT22;29610;49.022;12.114;2023-02-24T11:06:50;11.40;99.90
18794;DHT22;29610;49.022;12.114;2023-02-24T11:09:39;11.60;99.90
18794;DHT22;29610;49.022;12.114;2023-02-24T11:12:20;11.50;99.90
18794;DHT22;29610;49.022;12.114;2023-02-24T11:15:17;11.50;99.90
18794;DHT22;29610;49.022;12.114;2023-02-24T11:18:16;11.40;99.90
18794;DHT22;29610;49.022;12.114;2023-02-24T11:20:50;11.50;99.90
18794;DHT22;29610;49.022;12.114;2023-02-24T11:23:27;11.70;99.90
18794;DHT22;29610;49.022;12.114;2023-02-24T11:25:59;11.90;99.90
18794;DHT22;29610;49.022;12.114;2023-02-24T11:28:55;11.60;99.90
18794;DHT22;29610;49.022;12.114;2023-02-24T11:32:04;11.80;99.90
18794;DHT22;29610;49.022;12.114;2023-02-24T11:34:54;11.80;99.90
18794;DHT22;29610;49.022;12.114;2023-02-24T11:37:35;11.70;99.90
18794;DHT22;29610;49.022;12.114;2023-02-24T11:40:16;11.90;99.90
18794;DHT22;29610;49.022;12.114;2023-02-24T11:42:51;12.00;99.90
18794;DHT22;29610;49.022;12.114;2023-02-24T11:45:31;12.00;99.90
18794;DHT22;29610;49.022;12.114;2023-02-24T11:48:11;12.10;99.90
18794;DHT22;29610;49.022;12.114;2023-02-24T11:50:50;12.00;99.90
18794;DHT22;29610;49.022;12.114;2023-02-24T11:53:34;12.00;99.90
18794;DHT22;29610;49.022;12.114;2023-02-24T11:56:10;11.70;99.90
18794;DHT22;29610;49.022;12.114;2023-02-24T11:58:47;11.70;99.90
18794;DHT22;29610;49.022;12.114;2023-02-24T12:01:26;11.70;99.90
18794;DHT22;29610;49.022;12.114;2023-02-24T12:04:12;11.70;99.90
18794;DHT22;29610;49.022;12.114;2023-02-24T12:06:51;11.70;99.90
18794;DHT22;29610;49.022;12.114;2023-02-24T12:09:27;11.60;99.90
18794;DHT22;29610;49.022;12.114;2023-02-24T12:12:08;11.50;99.90
18794;DHT22;29610;49.022;12.114;2023-02-24T12:14:46;11.50;99.90
18794;DHT22;29610;49.022;12.114;2023-02-24T12:17:25;11.40;99.90
18794;DHT22;29610;49.022;12.114;2023-02-24T12:20:02;11.50;99.90
18794;DHT22;29610;49.022;12.114;2023-02-24T12:22:39;11.40;99.90
18794;DHT22;29610;49.022;12.114;2023-02-24T12:25:14;11.40;99.90
18794;DHT22;29610;49.022;12.114;2023-02-24T12:27:56;11.50;99.90
18794;DHT22;29610;49.022;12.114;2023-02-24T12:30:47;11.60;99.90
18794;DHT22;29610;49.022;12.114;2023-02-24T12:33:40;11.70;99.90
18794;DHT22;29610;49.022;12.114;2023-02-24T12:36:27;11.90;99.90
18794;DHT22;29610;49.022;12.114;2023-02-24T12:39:21;12.00;99.90
18794;DHT22;29610;49.022;12.114;2023-02-24T12:42:06;12.30;99.90
18794;DHT22;29610;49.022;12.114;2023-02-24T12:44:50;12.40;99.90
18794;DHT22;29610;49.022;12.114;2023-02-24T12:47:35;13.40;99.90
18794;DHT22;29610;49.022;12.114;2023-02-24T12:50:23;12.00;99.90
18794;DHT22;29610;49.022;12.114;2023-02-24T12:53:07;11.90;99.90
18794;DHT22;29610;49.022;12.114;2023-02-24T12:55:47;11.80;99.90
18794;DHT22;29610;49.022;12.114;2023-02-24T12:58:26;11.80;99.90
18794;DHT22;29610;49.022;12.114;2023-02-24T13:01:10;11.40;99.90
18794;DHT22;29610;49.022;12.114;2023-02-24T13:04:06;11.40;99.90
18794;DHT22;29610;49.022;12.114;2023-02-24T13:06:54;11.00;99.90
18794;DHT22;29610;49.022;12.114;2023-02-24T13:09:37;10.60;99.90
18794;DHT22;29610;49.022;12.114;2023-02-24T13:12:16;10.00;99.90
18794;DHT22;29610;49.022;12.114;2023-02-24T13:14:53;9.80;99.90
18794;DHT22;29610;49.022;12.114;2023-02-24T13:17:25;9.70;99.90
18794;DHT22;29610;49.022;12.114;2023-02-24T13:19:54;9.00;99.90
18794;DHT22;29610;49.022;12.114;2023-02-24T13:22:27;9.10;99.90
18794;DHT22;29610;49.022;12.114;2023-02-24T13:25:08;9.20;99.90
18794;DHT22;29610;49.022;12.114;2023-02-24T13:27:54;10.70;99.90
18794;DHT22;29610;49.022;12.114;2023-02-24T13:30:33;9.60;99.90
18794;DHT22;29610;49.022;12.114;2023-02-24T13:33:21;9.60;99.90
18794;DHT22;29610;49.022;12.114;2023-02-24T13:36:08;9.70;99.90
18794;DHT22;29610;49.022;12.114;2023-02-24T13:38:43;9.70;99.90
18794;DHT22;29610;49.022;12.114;2023-02-24T13:41:22;9.80;99.90
18794;DHT22;29610;49.022;12.114;2023-02-24T13:44:23;10.00;99.90
18794;DHT22;29610;49.022;12.114;2023-02-24T13:47:09;10.30;99.90
18794;DHT22;29610;49.022;12.114;2023-02-24T13:50:20;10.60;99.90
18794;DHT22;29610;49.022;12.114;2023-02-24T13:53:10;10.50;99.90
18794;DHT22;29610;49.022;12.114;2023-02-24T13:59:39;10.10;99.90
18794;DHT22;29610;49.022;12.114;2023-02-24T14:02:21;10.70;99.90
18794;DHT22;29610;49.022;12.114;2023-02-24T14:04:59;10.80;99.90
18794;DHT22;29610;49.022;12.114;2023-02-24T14:07:38;11.00;99.90
18794;DHT22;29610;49.022;12.114;2023-02-24T14:10:18;11.10;99.90
18794;DHT22;29610;49.022;12.114;2023-02-24T14:13:07;11.40;99.90
18794;DHT22;29610;49.022;12.114;2023-02-24T14:15:44;11.30;99.90
18794;DHT22;29610;49.022;12.114;2023-02-24T14:18:18;11.20;99.90
18794;DHT22;29610;49.022;12.114;2023-02-24T14:20:48;11.30;99.90
18794;DHT22;29610;49.022;12.114;2023-02-24T14:23:25;11.30;99.90
18794;DHT22;29610;49.022;12.114;2023-02-24T14:25:57;11.40;99.90
18794;DHT22;29610;49.022;12.114;2023-02-24T14:28:29;12.20;99.90
18794;DHT22;29610;49.022;12.114;2023-02-24T14:31:26;11.70;99.90
18794;DHT22;29610;49.022;12.114;2023-02-24T14:33:58;11.70;99.90
18794;DHT22;29610;49.022;12.114;2023-02-24T14:36:32;12.00;99.90
18794;DHT22;29610;49.022;12.114;2023-02-24T14:39:12;12.20;99.90
18794;DHT22;29610;49.022;12.114;2023-02-24T14:41:44;12.40;99.90
18794;DHT22;29610;49.022;12.114;2023-02-24T14:44:22;12.40;99.90
18794;DHT22;29610;49.022;12.114;2023-02-24T14:46:55;12.30;99.90
18794;DHT22;29610;49.022;12.114;2023-02-24T14:49:27;12.30;99.90
18794;DHT22;29610;49.022;12.114;2023-02-24T14:52:27;12.30;99.90
18794;DHT22;29610;49.022;12.114;2023-02-24T14:55:06;12.20;99.90
18794;DHT22;29610;49.022;12.114;2023-02-24T14:57:43;12.30;99.90
18794;DHT22;29610;49.022;12.114;2023-02-24T15:00:22;12.30;99.90
18794;DHT22;29610;49.022;12.114;2023-02-24T15:02:59;12.10;99.90
18794;DHT22;29610;49.022;12.114;2023-02-24T15:05:38;11.80;99.90
18794;DHT22;29610;49.022;12.114;2023-02-24T15:08:32;11.80;99.90
18794;DHT22;29610;49.022;12.114;2023-02-24T15:11:16;11.50;99.90
18794;DHT22;29610;49.022;12.114;2023-02-24T15:13:50;12.50;99.90
18794;DHT22;29610;49.022;12.114;2023-02-24T15:16:23;11.20;99.90
18794;DHT22;29610;49.022;12.114;2023-02-24T15:18:56;11.10;99.90
18794;DHT22;29610;49.022;12.114;2023-02-24T15:21:30;11.00;99.90
18794;DHT22;29610;49.022;12.114;2023-02-24T15:24:00;10.80;99.90
18794;DHT22;29610;49.022;12.114;2023-02-24T15:26:34;10.70;99.90
18794;DHT22;29610;49.022;12.114;2023-02-24T15:29:12;10.40;99.90
18794;DHT22;29610;49.022;12.114;2023-02-24T15:31:45;10.30;99.90
18794;DHT22;29610;49.022;12.114;2023-02-24T15:34:18;10.10;99.90
18794;DHT22;29610;49.022;12.114;2023-02-24T15:36:49;10.00;99.90
18794;DHT22;29610;49.022;12.114;2023-02-24T15:39:23;10.90;99.90
18794;DHT22;29610;49.022;12.114;2023-02-24T15:42:08;9.80;99.90
18794;DHT22;29610;49.022;12.114;2023-02-24T15:44:52;9.70;99.90
18794;DHT22;29610;49.022;12.114;2023-02-24T15:47:23;9.60;99.90
18794;DHT22;29610;49.022;12.114;2023-02-24T15:49:57;10.00;99.90
18794;DHT22;29610;49.022;12.114;2023-02-24T15:52:27;9.50;99.90
18794;DHT22;29610;49.022;12.114;2023-02-24T15:54:59;9.50;99.90
18794;DHT22;29610;49.022;12.114;2023-02-24T15:57:31;9.60;99.90
18794;DHT22;29610;49.022;12.114;2023-02-24T16:00:01;9.50;99.90
18794;DHT22;29610;49.022;12.114;2023-02-24T16:02:38;9.40;99.90
18794;DHT22;29610;49.022;12.114;2023-02-24T16:05:10;9.40;99.90
18794;DHT22;29610;49.022;12.114;2023-02-24T16:07:42;9.40;99.90
18794;DHT22;29610;49.022;12.114;2023-02-24T16:10:18;9.40;99.90
18794;DHT22;29610;49.022;12.114;2023-02-24T16:12:53;9.30;99.90
18794;DHT22;29610;49.022;12.114;2023-02-24T16:15:25;9.30;99.90
18794;DHT22;29610;49.022;12.114;2023-02-24T16:17:57;9.30;99.90
18794;DHT22;29610;49.022;12.114;2023-02-24T16:20:29;9.40;99.90
18794;DHT22;29610;49.022;12.114;2023-02-24T16:23:01;9.20;99.90
18794;DHT22;29610;49.022;12.114;2023-02-24T16:25:36;9.30;99.90
18794;DHT22;29610;49.022;12.114;2023-02-24T16:28:12;9.30;99.90
18794;DHT22;29610;49.022;12.114;2023-02-24T16:30:43;9.10;99.90
18794;DHT22;29610;49.022;12.114;2023-02-24T16:33:14;9.00;99.90
18794;DHT22;29610;49.022;12.114;2023-02-24T16:35:44;8.90;99.90
18794;DHT22;29610;49.022;12.114;2023-02-24T16:38:16;8.80;99.90